createdAt,value
2023-04-04T00:04:54.057Z,99.90
2023-04-04T00:11:02.086Z,99.90
2023-04-04T00:17:04.019Z,99.90
2023-04-04T00:23:06.182Z,99.90
2023-04-04T00:29:08.116Z,99.90
2023-04-04T00:35:10.025Z,99.90
2023-04-04T00:41:12.270Z,99.90
2023-04-04T00:47:14.726Z,99.90
2023-04-04T00:53:17.387Z,99.90
2023-04-04T00:59:19.421Z,99.90
2023-04-04T01:05:21.492Z,99.90
2023-04-04T01:11:23.964Z,99.90
2023-04-04T01:17:27.386Z,99.90
2023-04-04T01:23:59.504Z,99.90
2023-04-04T01:30:02.232Z,99.90
2023-04-04T01:36:14.432Z,99.90
2023-04-04T01:42:19.709Z,99.90
2023-04-04T01:48:22.340Z,99.90
2023-04-04T01:54:24.657Z,99.90
2023-04-04T02:00:26.536Z,99.90
2023-04-04T02:06:29.182Z,99.90
2023-04-04T02:12:31.079Z,99.90
2023-04-04T02:18:33.573Z,99.90
2023-04-04T02:24:35.546Z,99.90
2023-04-04T02:30:37.474Z,99.90
2023-04-04T02:36:39.349Z,99.90
2023-04-04T02:42:45.070Z,99.90
2023-04-04T02:48:47.031Z,99.90
2023-04-04T02:54:49.835Z,99.90
2023-04-04T03:00:55.911Z,99.90
2023-04-04T03:06:57.896Z,99.90
2023-04-04T03:13:00.046Z,99.90
2023-04-04T03:19:02.357Z,99.90
2023-04-04T03:25:04.726Z,99.90
2023-04-04T03:31:10.244Z,99.90
2023-04-04T03:37:12.176Z,99.90
2023-04-04T03:43:14.065Z,99.90
2023-04-04T03:49:16.300Z,99.90
2023-04-04T03:55:18.289Z,99.90
2023-04-04T04:01:20.234Z,99.90
2023-04-04T04:07:22.146Z,99.90
2023-04-04T04:13:24.024Z,99.90
2023-04-04T04:19:26.385Z,99.90
2023-04-04T04:25:28.329Z,99.90
2023-04-04T04:31:30.519Z,99.90
2023-04-04T04:37:32.597Z,99.90
2023-04-04T04:43:36.885Z,99.90
2023-04-04T04:49:38.769Z,99.90
2023-04-04T04:55:43.069Z,99.90
2023-04-04T05:01:45.338Z,99.90
2023-04-04T05:07:47.658Z,99.90
2023-04-04T05:13:50.069Z,99.90
2023-04-04T05:19:52.374Z,99.90
2023-04-04T05:25:54.432Z,99.90
2023-04-04T05:31:56.459Z,99.90
2023-04-04T05:37:58.511Z,99.90
2023-04-04T05:44:00.509Z,99.90
2023-04-04T05:50:02.819Z,99.90
2023-04-04T05:56:04.844Z,99.90
2023-04-04T06:02:08.485Z,99.90
2023-04-04T06:08:10.958Z,99.90
2023-04-04T06:14:15.143Z,99.90
2023-04-04T06:20:19.192Z,99.90
2023-04-04T06:26:21.903Z,99.90
2023-04-04T06:32:23.932Z,99.90
2023-04-04T06:38:27.345Z,99.90
2023-04-04T06:44:29.331Z,99.90
2023-04-04T06:50:32.510Z,99.90
2023-04-04T06:56:34.770Z,99.90
2023-04-04T07:02:37.009Z,99.90
2023-04-04T07:08:39.067Z,99.90
2023-04-04T07:14:41.163Z,99.90
2023-04-04T07:20:43.801Z,99.90
2023-04-04T07:26:45.772Z,99.90
2023-04-04T07:32:47.707Z,99.90
2023-04-04T07:38:49.603Z,99.90
2023-04-04T07:44:52.177Z,99.90
2023-04-04T07:50:54.096Z,99.90
2023-04-04T07:56:56.059Z,99.90
2023-04-04T08:03:01.713Z,99.90
2023-04-04T08:09:05.005Z,99.90
2023-04-04T08:15:07.474Z,99.90
2023-04-04T08:21:09.443Z,99.90
2023-04-04T08:27:11.568Z,99.90
2023-04-04T08:33:13.532Z,99.90
2023-04-04T08:39:16.009Z,99.90
2023-04-04T08:45:22.307Z,99.90
2023-04-04T08:51:26.596Z,99.90
2023-04-04T08:57:29.248Z,99.90
2023-04-04T09:03:34.307Z,99.90
2023-04-04T09:09:38.855Z,99.90
2023-04-04T09:15:43.651Z,99.90
2023-04-04T09:21:49.723Z,99.90
2023-04-04T09:27:53.483Z,99.90
2023-04-04T09:33:58.180Z,99.90
2023-04-04T09:40:00.278Z,99.90
2023-04-04T09:46:04.052Z,99.90
2023-04-04T09:52:17.477Z,99.90
2023-04-04T09:58:26.405Z,99.90
2023-04-04T10:04:32.283Z,99.90
2023-04-04T10:10:34.506Z,95.80
2023-04-04T10:16:37.929Z,92.80
2023-04-04T10:22:41.119Z,83.80
2023-04-04T10:28:44.295Z,79.10
2023-04-04T10:35:11.750Z,86.60
2023-04-04T10:41:14.402Z,87.00
2023-04-04T10:47:22.121Z,86.80
2023-04-04T10:53:24.363Z,83.00
2023-04-04T10:59:26.784Z,88.90
2023-04-04T11:05:43.306Z,80.90
2023-04-04T11:12:08.260Z,76.40
2023-04-04T11:18:27.058Z,69.70
2023-04-04T11:24:44.583Z,69.10
2023-04-04T11:30:50.204Z,69.10
2023-04-04T11:36:52.600Z,72.20
2023-04-04T11:42:56.118Z,66.60
2023-04-04T11:48:59.418Z,69.40
2023-04-04T11:55:01.776Z,68.70
2023-04-04T12:01:05.342Z,71.30
2023-04-04T12:07:09.227Z,70.40
2023-04-04T12:13:11.663Z,66.80
2023-04-04T12:19:13.624Z,67.10
2023-04-04T12:25:15.638Z,72.80
2023-04-04T12:31:17.653Z,74.80
2023-04-04T12:37:22.446Z,70.70
2023-04-04T12:43:29.457Z,75.00
2023-04-04T12:49:44.229Z,75.30
2023-04-04T12:55:51.461Z,69.50
2023-04-04T13:01:53.716Z,74.90
2023-04-04T13:08:09.907Z,79.30
2023-04-04T13:14:13.316Z,79.50
2023-04-04T13:20:19.995Z,80.60
2023-04-04T13:26:21.997Z,84.30
2023-04-04T13:32:24.112Z,81.00
2023-04-04T13:38:27.748Z,82.00
2023-04-04T13:44:29.780Z,79.60
2023-04-04T13:50:33.127Z,88.00
2023-04-04T13:56:34.991Z,80.40
2023-04-04T14:02:37.099Z,79.20
2023-04-04T14:08:39.789Z,83.10
2023-04-04T14:14:41.908Z,85.70
2023-04-04T14:20:44.079Z,83.20
2023-04-04T14:26:46.077Z,79.30
2023-04-04T14:32:48.042Z,82.10
2023-04-04T14:38:50.749Z,82.80
2023-04-04T14:44:52.657Z,76.40
2023-04-04T14:50:54.603Z,74.60
2023-04-04T14:56:57.869Z,72.70
2023-04-04T15:02:59.845Z,78.20
2023-04-04T15:09:04.816Z,76.30
2023-04-04T15:15:07.675Z,72.90
2023-04-04T15:21:09.582Z,74.40
2023-04-04T15:27:11.545Z,74.90
2023-04-04T15:33:13.529Z,80.10
2023-04-04T15:39:15.526Z,83.80
2023-04-04T15:45:17.558Z,83.00
2023-04-04T15:51:21.205Z,80.90
2023-04-04T15:57:23.423Z,77.70
2023-04-04T16:03:25.784Z,81.00
2023-04-04T16:09:27.857Z,75.10
2023-04-04T16:15:29.759Z,73.90
2023-04-04T16:21:32.646Z,69.40
2023-04-04T16:27:35.217Z,68.70
2023-04-04T16:33:37.264Z,67.70
2023-04-04T16:39:39.263Z,69.30
2023-04-04T16:45:41.425Z,69.60
2023-04-04T16:51:43.430Z,72.40
2023-04-04T16:57:46.464Z,74.70
2023-04-04T17:03:49.248Z,80.60
2023-04-04T17:09:51.562Z,85.80
2023-04-04T17:15:53.486Z,90.40
2023-04-04T17:21:58.725Z,92.60
2023-04-04T17:28:00.818Z,92.90
2023-04-04T17:34:02.770Z,95.20
2023-04-04T17:40:05.554Z,95.00
2023-04-04T17:46:07.802Z,98.90
2023-04-04T17:52:10.160Z,99.90
2023-04-04T17:58:12.105Z,99.90
2023-04-04T18:04:14.132Z,99.90
2023-04-04T18:10:17.225Z,99.90
2023-04-04T18:16:19.157Z,99.90
2023-04-04T18:22:22.646Z,99.90
2023-04-04T18:28:24.609Z,99.90
2023-04-04T18:34:26.500Z,99.90
2023-04-04T18:40:28.487Z,99.90
2023-04-04T18:46:30.445Z,99.90
2023-04-04T18:52:32.600Z,99.90
2023-04-04T18:58:34.509Z,99.90
2023-04-04T19:04:39.174Z,99.90
2023-04-04T19:10:47.263Z,99.90
2023-04-04T19:16:49.184Z,99.90
2023-04-04T19:22:51.363Z,99.90
2023-04-04T19:28:53.264Z,99.90
2023-04-04T19:34:56.320Z,99.90
2023-04-04T19:41:11.907Z,99.90
2023-04-04T19:47:19.962Z,99.90
2023-04-04T19:53:22.761Z,99.90
2023-04-04T20:00:05.124Z,99.90
2023-04-04T20:06:09.551Z,99.90
2023-04-04T20:12:14.362Z,99.90
2023-04-04T20:18:24.539Z,99.90
2023-04-04T20:24:26.509Z,99.90
2023-04-04T20:30:28.392Z,99.90
2023-04-04T20:36:35.337Z,99.90
2023-04-04T20:42:40.405Z,99.90
2023-04-04T20:48:42.575Z,99.90
2023-04-04T20:54:44.544Z,99.90
2023-04-04T21:00:46.451Z,99.90
2023-04-04T21:06:48.394Z,99.90
2023-04-04T21:13:03.127Z,99.90
2023-04-04T21:19:05.428Z,99.90
2023-04-04T21:25:38.650Z,99.90
2023-04-04T21:31:43.071Z,99.90
2023-04-04T21:37:45.237Z,99.90
2023-04-04T21:43:47.512Z,99.90
2023-04-04T21:49:49.388Z,99.90
2023-04-04T21:55:51.270Z,99.90
2023-04-04T22:01:53.224Z,99.90
2023-04-04T22:07:55.128Z,99.90
2023-04-04T22:14:04.174Z,99.90
2023-04-04T22:20:11.107Z,99.90
2023-04-04T22:26:15.378Z,99.90
2023-04-04T22:32:17.258Z,99.90
2023-04-04T22:38:19.286Z,99.90
2023-04-04T22:44:21.617Z,99.90
2023-04-04T22:50:24.906Z,99.90
2023-04-04T22:56:27.127Z,99.90
2023-04-04T23:02:29.033Z,99.90
2023-04-04T23:08:31.017Z,99.90
2023-04-04T23:14:38.680Z,99.90
2023-04-04T23:20:41.786Z,99.90
2023-04-04T23:26:43.845Z,99.90
2023-04-04T23:32:45.833Z,99.90
2023-04-04T23:38:47.798Z,99.90
2023-04-04T23:44:49.735Z,99.90
2023-04-04T23:50:54.517Z,99.90
2023-04-04T23:56:56.582Z,99.90
